createdAt,value
2022-12-11T00:02:47.086Z,100006.88
2022-12-11T00:05:41.939Z,100005.29
2022-12-11T00:08:34.679Z,100004.26
2022-12-11T00:11:31.264Z,100005.08
2022-12-11T00:14:23.988Z,100009.90
2022-12-11T00:17:16.722Z,100007.89
2022-12-11T00:20:11.116Z,100001.02
2022-12-11T00:23:03.835Z,100009.69
2022-12-11T00:25:56.602Z,100010.42
2022-12-11T00:28:49.331Z,100008.80
2022-12-11T00:31:42.139Z,100010.55
2022-12-11T00:34:34.946Z,100012.96
2022-12-11T00:37:29.146Z,100011.41
2022-12-11T00:40:22.100Z,100010.55
2022-12-11T00:43:16.097Z,100009.73
2022-12-11T00:46:09.008Z,100005.19
2022-12-11T00:49:01.796Z,100002.20
2022-12-11T00:51:54.588Z,100004.70
2022-12-11T00:54:47.386Z,100005.36
2022-12-11T00:57:40.294Z,100003.97
2022-12-11T01:00:33.196Z,100003.43
2022-12-11T01:03:25.941Z,100001.06
2022-12-11T01:06:20.693Z,100005.27
2022-12-11T01:09:31.437Z,100011.54
2022-12-11T01:12:24.219Z,100011.36
2022-12-11T01:15:17.074Z,100013.50
2022-12-11T01:18:09.940Z,100010.84
2022-12-11T01:21:02.663Z,100008.55
2022-12-11T01:23:55.429Z,100006.34
2022-12-11T01:26:48.523Z,100008.27
2022-12-11T01:29:41.261Z,100001.64
2022-12-11T01:32:34.991Z,100000.71
2022-12-11T01:35:27.797Z,99993.38
2022-12-11T01:38:20.570Z,99991.78
2022-12-11T01:41:13.467Z,99987.58
2022-12-11T01:44:08.675Z,99980.87
2022-12-11T01:47:01.381Z,99978.73
2022-12-11T01:49:54.127Z,99975.92
2022-12-11T01:52:47.797Z,99980.55
2022-12-11T01:55:40.826Z,99976.17
2022-12-11T01:58:36.369Z,99974.16
2022-12-11T02:01:31.110Z,99973.48
2022-12-11T02:04:24.303Z,99971.83
2022-12-11T02:07:17.122Z,99970.89
2022-12-11T02:10:12.266Z,99961.57
2022-12-11T02:13:08.722Z,99963.81
2022-12-11T02:16:05.090Z,99965.20
2022-12-11T02:18:59.941Z,99965.70
2022-12-11T02:21:54.270Z,99966.84
2022-12-11T02:24:57.281Z,99966.35
2022-12-11T02:27:56.569Z,99966.44
2022-12-11T02:30:51.150Z,99964.18
2022-12-11T02:33:48.409Z,99961.16
2022-12-11T02:36:43.332Z,99960.26
2022-12-11T02:39:36.360Z,99949.46
2022-12-11T02:42:30.779Z,99945.17
2022-12-11T02:45:24.039Z,99943.24
2022-12-11T02:48:16.791Z,99944.10
2022-12-11T02:51:09.743Z,99938.27
2022-12-11T02:54:02.867Z,99931.77
2022-12-11T02:56:58.594Z,99924.98
2022-12-11T02:59:51.355Z,99920.23
2022-12-11T03:02:44.714Z,99918.63
2022-12-11T03:05:37.558Z,99919.53
2022-12-11T03:08:30.370Z,99920.77
2022-12-11T03:11:23.217Z,99914.06
2022-12-11T03:14:15.966Z,99907.27
2022-12-11T03:17:12.454Z,99897.34
2022-12-11T03:20:07.091Z,99900.04
2022-12-11T03:23:02.675Z,99904.30
2022-12-11T03:25:57.155Z,99901.99
2022-12-11T03:28:50.608Z,99908.09
2022-12-11T03:31:44.638Z,99907.11
2022-12-11T03:34:40.734Z,99906.98
2022-12-11T03:37:34.414Z,99909.68
2022-12-11T03:40:27.723Z,99909.77
2022-12-11T03:43:20.499Z,99913.45
2022-12-11T03:46:13.277Z,99913.78
2022-12-11T03:49:07.130Z,99914.75
2022-12-11T03:52:00.022Z,99912.63
2022-12-11T03:54:52.745Z,99915.57
2022-12-11T03:57:45.526Z,99912.70
2022-12-11T04:00:38.517Z,99913.48
2022-12-11T04:03:31.248Z,99917.91
2022-12-11T04:06:24.355Z,99916.63
2022-12-11T04:09:17.087Z,99916.71
2022-12-11T04:12:09.878Z,99923.66
2022-12-11T04:15:05.702Z,99922.64
2022-12-11T04:18:15.791Z,99921.98
2022-12-11T04:21:27.903Z,99919.00
2022-12-11T04:24:20.650Z,99923.58
2022-12-11T04:27:13.762Z,99916.17
2022-12-11T04:30:08.232Z,99910.16
2022-12-11T04:33:01.035Z,99905.66
2022-12-11T04:35:53.763Z,99900.77
2022-12-11T04:38:46.465Z,99899.21
2022-12-11T04:41:41.249Z,99891.52
2022-12-11T04:44:34.750Z,99889.15
2022-12-11T04:47:28.184Z,99888.20
2022-12-11T04:50:21.021Z,99887.23
2022-12-11T04:53:14.185Z,99891.11
2022-12-11T04:56:10.242Z,99895.20
2022-12-11T04:59:03.008Z,99890.28
2022-12-11T05:01:55.763Z,99896.30
2022-12-11T05:04:48.526Z,99898.14
2022-12-11T05:07:41.323Z,99896.33
2022-12-11T05:10:34.054Z,99898.06
2022-12-11T05:13:26.764Z,99895.97
2022-12-11T05:16:19.668Z,99893.92
2022-12-11T05:19:12.470Z,99895.36
2022-12-11T05:22:05.186Z,99893.71
2022-12-11T05:24:57.922Z,99886.77
2022-12-11T05:27:50.621Z,99884.32
2022-12-11T05:30:43.301Z,99882.03
2022-12-11T05:33:36.051Z,99872.30
2022-12-11T05:36:29.681Z,99879.24
2022-12-11T05:39:22.432Z,99874.70
2022-12-11T05:42:15.163Z,99874.88
2022-12-11T05:45:10.325Z,99873.96
2022-12-11T05:48:03.365Z,99866.45
2022-12-11T05:51:05.437Z,99864.81
2022-12-11T05:53:58.563Z,99862.73
2022-12-11T05:56:52.456Z,99858.73
2022-12-11T05:59:45.598Z,99858.19
2022-12-11T06:02:39.246Z,99855.20
2022-12-11T06:05:32.842Z,99852.21
2022-12-11T06:08:25.893Z,99852.30
2022-12-11T06:11:23.798Z,99859.38
2022-12-11T06:14:16.999Z,99855.69
2022-12-11T06:17:09.748Z,99852.27
2022-12-11T06:20:02.516Z,99849.48
2022-12-11T06:22:55.243Z,99847.23
2022-12-11T06:25:47.973Z,99851.62
2022-12-11T06:28:40.744Z,99852.38
2022-12-11T06:31:33.556Z,99852.39
2022-12-11T06:34:26.358Z,99851.52
2022-12-11T06:37:19.107Z,99846.41
2022-12-11T06:40:13.907Z,99844.29
2022-12-11T06:43:06.659Z,99841.55
2022-12-11T06:46:03.799Z,99838.55
2022-12-11T06:48:57.487Z,99840.31
2022-12-11T06:51:50.205Z,99840.73
2022-12-11T06:54:43.217Z,99840.15
2022-12-11T06:57:35.943Z,99840.30
2022-12-11T07:00:28.672Z,99845.50
2022-12-11T07:03:21.421Z,99844.48
2022-12-11T07:06:14.181Z,99846.77
2022-12-11T07:09:07.915Z,99850.11
2022-12-11T07:12:00.620Z,99855.80
2022-12-11T07:14:53.363Z,99854.05
2022-12-11T07:17:46.143Z,99860.91
2022-12-11T07:20:38.954Z,99855.48
2022-12-11T07:23:31.763Z,99856.82
2022-12-11T07:26:24.523Z,99852.83
2022-12-11T07:29:17.256Z,99855.65
2022-12-11T07:32:10.801Z,99856.17
2022-12-11T07:35:03.882Z,99858.10
2022-12-11T07:37:56.785Z,99866.60
2022-12-11T07:40:49.756Z,99872.66
2022-12-11T07:43:42.714Z,99865.58
2022-12-11T07:46:35.956Z,99869.01
2022-12-11T07:49:29.352Z,99868.52
2022-12-11T07:52:22.400Z,99862.92
2022-12-11T07:55:15.246Z,99865.58
2022-12-11T07:58:08.762Z,99864.34
2022-12-11T08:01:03.817Z,99862.05
2022-12-11T08:03:57.529Z,99858.45
2022-12-11T08:06:50.410Z,99861.30
2022-12-11T08:09:43.492Z,99853.28
2022-12-11T08:12:36.546Z,99852.31
2022-12-11T08:15:29.652Z,99848.02
2022-12-11T08:18:22.633Z,99852.35
2022-12-11T08:21:16.638Z,99846.01
2022-12-11T08:24:10.677Z,99842.73
2022-12-11T08:27:04.183Z,99841.81
2022-12-11T08:29:57.265Z,99845.58
2022-12-11T08:32:53.294Z,99843.70
2022-12-11T08:35:46.656Z,99846.07
2022-12-11T08:38:40.529Z,99854.80
2022-12-11T08:41:33.520Z,99839.75
2022-12-11T08:44:27.365Z,99843.91
2022-12-11T08:47:20.761Z,99840.56
2022-12-11T08:50:14.526Z,99840.48
2022-12-11T08:53:07.661Z,99841.42
2022-12-11T08:56:05.344Z,99835.05
2022-12-11T08:59:00.175Z,99829.90
2022-12-11T09:01:53.243Z,99829.95
2022-12-11T09:04:46.318Z,99822.75
2022-12-11T09:07:40.100Z,99826.77
2022-12-11T09:10:33.646Z,99824.42
2022-12-11T09:13:26.475Z,99819.39
2022-12-11T09:16:20.504Z,99825.41
2022-12-11T09:19:14.723Z,99828.59
2022-12-11T09:22:09.859Z,99828.62
2022-12-11T09:25:02.967Z,99824.16
2022-12-11T09:27:55.819Z,99820.56
2022-12-11T09:30:48.645Z,99818.85
2022-12-11T09:33:41.406Z,99817.49
2022-12-11T09:36:34.631Z,99814.09
2022-12-11T09:39:27.384Z,99806.73
2022-12-11T09:42:22.494Z,99803.77
2022-12-11T09:45:16.301Z,99800.20
2022-12-11T09:48:09.252Z,99788.83
2022-12-11T09:51:02.624Z,99785.50
2022-12-11T09:53:55.393Z,99787.22
2022-12-11T09:56:50.759Z,99778.98
2022-12-11T09:59:46.775Z,99781.90
2022-12-11T10:02:46.041Z,99776.64
2022-12-11T10:05:40.055Z,99769.97
2022-12-11T10:08:34.678Z,99766.48
2022-12-11T10:11:36.758Z,99758.35
2022-12-11T10:14:34.502Z,99761.88
2022-12-11T10:17:29.267Z,99753.62
2022-12-11T10:20:23.927Z,99756.14
2022-12-11T10:23:19.737Z,99754.84
2022-12-11T10:26:14.022Z,99755.45
2022-12-11T10:29:10.498Z,99749.11
2022-12-11T10:32:03.624Z,99749.69
2022-12-11T10:34:59.972Z,99747.98
2022-12-11T10:37:53.228Z,99746.13
2022-12-11T10:40:48.297Z,99735.23
2022-12-11T10:43:42.547Z,99731.77
2022-12-11T10:46:37.382Z,99726.14
2022-12-11T10:49:31.151Z,99730.88
2022-12-11T10:52:25.385Z,99726.08
2022-12-11T10:55:23.740Z,99714.23
2022-12-11T10:58:19.492Z,99704.83
2022-12-11T11:01:15.539Z,99700.84
2022-12-11T11:04:15.184Z,99696.09
2022-12-11T11:07:13.811Z,99688.48
2022-12-11T11:10:19.329Z,99686.41
2022-12-11T11:13:16.771Z,99683.21
2022-12-11T11:16:13.374Z,99680.31
2022-12-11T11:19:07.073Z,99679.70
2022-12-11T11:22:02.269Z,99676.48
2022-12-11T11:24:57.505Z,99669.69
2022-12-11T11:27:52.433Z,99670.55
2022-12-11T11:30:55.193Z,99669.73
2022-12-11T11:33:54.301Z,99666.17
2022-12-11T11:36:47.642Z,99661.12
2022-12-11T11:39:41.684Z,99653.08
2022-12-11T11:42:40.506Z,99651.75
2022-12-11T11:45:35.815Z,99642.81
2022-12-11T11:48:45.392Z,99641.13
2022-12-11T11:51:40.279Z,99636.10
2022-12-11T11:54:34.853Z,99641.28
2022-12-11T11:57:31.053Z,99635.64
2022-12-11T12:00:30.367Z,99637.86
2022-12-11T12:03:27.103Z,99636.02
2022-12-11T12:06:23.748Z,99631.92
2022-12-11T12:09:23.681Z,99634.95
2022-12-11T12:12:26.464Z,99630.45
2022-12-11T12:18:52.806Z,99629.15
2022-12-11T12:21:48.389Z,99627.40
2022-12-11T12:24:44.842Z,99623.42
2022-12-11T12:27:51.960Z,99611.22
2022-12-11T12:30:50.029Z,99611.26
2022-12-11T12:33:48.917Z,99611.33
2022-12-11T12:36:45.051Z,99609.58
2022-12-11T12:39:41.281Z,99605.93
2022-12-11T12:42:39.445Z,99604.13
2022-12-11T12:45:34.207Z,99598.95
2022-12-11T12:48:27.564Z,99596.77
2022-12-11T12:51:20.607Z,99598.33
2022-12-11T12:54:16.556Z,99597.73
2022-12-11T12:57:10.047Z,99597.40
2022-12-11T13:00:08.134Z,99599.66
2022-12-11T13:03:14.813Z,99594.25
2022-12-11T13:06:09.438Z,99594.98
2022-12-11T13:09:14.378Z,99597.40
2022-12-11T13:12:16.229Z,99595.64
2022-12-11T13:15:28.136Z,99599.31
2022-12-11T13:18:38.035Z,99599.48
2022-12-11T13:21:33.627Z,99598.73
2022-12-11T13:24:29.727Z,99595.95
2022-12-11T13:27:28.576Z,99596.44
2022-12-11T13:30:27.117Z,99599.80
2022-12-11T13:33:20.792Z,99594.57
2022-12-11T13:36:28.884Z,99592.28
2022-12-11T13:39:24.344Z,99594.70
2022-12-11T13:42:25.092Z,99593.10
2022-12-11T13:45:23.313Z,99590.98
2022-12-11T13:48:20.571Z,99595.56
2022-12-11T13:51:20.053Z,99599.09
2022-12-11T13:54:18.713Z,99604.60
2022-12-11T13:57:18.715Z,99602.38
2022-12-11T14:00:25.237Z,99603.06
2022-12-11T14:03:18.236Z,99596.48
2022-12-11T14:06:18.597Z,99595.11
2022-12-11T14:09:15.556Z,99589.05
2022-12-11T14:12:14.328Z,99590.60
2022-12-11T14:15:13.115Z,99597.27
2022-12-11T14:18:06.952Z,99601.39
2022-12-11T14:21:00.908Z,99602.88
2022-12-11T14:23:56.674Z,99593.99
2022-12-11T14:26:52.909Z,99588.08
2022-12-11T14:29:46.055Z,99589.36
2022-12-11T14:32:41.229Z,99591.50
2022-12-11T14:35:39.108Z,99589.82
2022-12-11T14:38:34.201Z,99581.27
2022-12-11T14:41:29.635Z,99576.82
2022-12-11T14:44:23.028Z,99571.06
2022-12-11T14:47:17.799Z,99561.70
2022-12-11T14:50:13.144Z,99567.13
2022-12-11T14:53:08.522Z,99570.66
2022-12-11T14:56:02.898Z,99563.38
2022-12-11T14:58:58.583Z,99565.21
2022-12-11T15:02:00.159Z,99565.95
2022-12-11T15:05:21.845Z,99567.67
2022-12-11T15:08:25.129Z,99569.59
2022-12-11T15:11:18.529Z,99563.45
2022-12-11T15:14:12.530Z,99563.09
2022-12-11T15:17:06.006Z,99559.37
2022-12-11T15:20:02.164Z,99560.38
2022-12-11T15:22:55.645Z,99563.77
2022-12-11T15:25:54.236Z,99565.16
2022-12-11T15:28:47.378Z,99568.84
2022-12-11T15:31:40.430Z,99569.14
2022-12-11T15:34:43.404Z,99566.68
2022-12-11T15:37:38.540Z,99565.42
2022-12-11T15:40:31.869Z,99562.52
2022-12-11T15:43:24.978Z,99559.60
2022-12-11T15:46:17.973Z,99556.21
2022-12-11T15:49:14.363Z,99554.78
2022-12-11T15:52:07.813Z,99555.08
2022-12-11T15:55:01.071Z,99554.70
2022-12-11T15:57:55.437Z,99552.89
2022-12-11T16:00:48.679Z,99552.38
2022-12-11T16:03:41.601Z,99547.92
2022-12-11T16:06:34.939Z,99541.73
2022-12-11T16:09:27.842Z,99542.23
2022-12-11T16:12:20.961Z,99537.77
2022-12-11T16:15:21.425Z,99534.67
2022-12-11T16:18:18.297Z,99529.56
2022-12-11T16:21:13.570Z,99530.87
2022-12-11T16:24:09.515Z,99529.52
2022-12-11T16:27:02.649Z,99531.23
2022-12-11T16:29:56.337Z,99534.05
2022-12-11T16:32:49.668Z,99533.73
2022-12-11T16:35:43.217Z,99534.75
2022-12-11T16:38:37.185Z,99537.02
2022-12-11T16:41:30.271Z,99530.83
2022-12-11T16:44:24.342Z,99531.69
2022-12-11T16:47:17.417Z,99526.58
2022-12-11T16:50:11.584Z,99522.17
2022-12-11T16:53:04.974Z,99522.41
2022-12-11T16:55:58.480Z,99523.97
2022-12-11T16:58:51.853Z,99525.08
2022-12-11T17:01:45.450Z,99522.52
2022-12-11T17:04:38.879Z,99522.20
2022-12-11T17:07:34.867Z,99522.65
2022-12-11T17:10:28.603Z,99514.89
2022-12-11T17:13:21.508Z,99517.70
2022-12-11T17:16:16.123Z,99513.00
2022-12-11T17:19:09.486Z,99512.26
2022-12-11T17:22:02.934Z,99519.09
2022-12-11T17:24:56.656Z,99519.58
2022-12-11T17:27:50.039Z,99515.36
2022-12-11T17:30:44.896Z,99516.88
2022-12-11T17:33:38.221Z,99512.50
2022-12-11T17:36:31.276Z,99517.25
2022-12-11T17:39:24.334Z,99517.00
2022-12-11T17:42:17.822Z,99514.14
2022-12-11T17:45:12.428Z,99508.53
2022-12-11T17:48:05.796Z,99512.55
2022-12-11T17:50:58.793Z,99513.24
2022-12-11T17:53:51.833Z,99514.10
2022-12-11T17:56:45.565Z,99512.88
2022-12-11T17:59:38.879Z,99514.67
2022-12-11T18:02:32.122Z,99514.02
2022-12-11T18:05:25.380Z,99511.56
2022-12-11T18:08:19.068Z,99508.58
2022-12-11T18:11:13.527Z,99512.71
2022-12-11T18:14:06.633Z,99517.33
2022-12-11T18:17:00.089Z,99519.41
2022-12-11T18:19:53.376Z,99521.24
2022-12-11T18:22:47.035Z,99515.45
2022-12-11T18:25:40.127Z,99517.62
2022-12-11T18:28:33.887Z,99517.98
2022-12-11T18:31:27.060Z,99513.58
2022-12-11T18:34:20.269Z,99511.86
2022-12-11T18:37:13.683Z,99510.88
2022-12-11T18:40:08.712Z,99513.74
2022-12-11T18:43:01.864Z,99511.34
2022-12-11T18:45:56.554Z,99514.92
2022-12-11T18:48:49.650Z,99515.13
2022-12-11T18:51:42.863Z,99514.44
2022-12-11T18:54:36.152Z,99514.68
2022-12-11T18:57:29.283Z,99516.64
2022-12-11T19:00:23.336Z,99508.92
2022-12-11T19:03:16.862Z,99508.39
2022-12-11T19:06:11.703Z,99508.83
2022-12-11T19:09:05.353Z,99504.02
2022-12-11T19:11:58.779Z,99505.86
2022-12-11T19:14:51.997Z,99507.61
2022-12-11T19:17:45.431Z,99511.58
2022-12-11T19:20:57.662Z,99507.38
2022-12-11T19:23:56.648Z,99506.10
2022-12-11T19:26:50.621Z,99500.91
2022-12-11T19:29:44.365Z,99502.98
2022-12-11T19:32:40.474Z,99499.08
2022-12-11T19:35:35.212Z,99497.64
2022-12-11T19:38:29.061Z,99495.55
2022-12-11T19:41:23.272Z,99500.09
2022-12-11T19:44:16.697Z,99497.77
2022-12-11T19:47:10.436Z,99500.01
2022-12-11T19:50:07.016Z,99496.77
2022-12-11T19:53:00.106Z,99489.59
2022-12-11T19:55:53.987Z,99483.52
2022-12-11T19:58:47.155Z,99486.17
2022-12-11T20:01:40.615Z,99479.96
2022-12-11T20:04:33.735Z,99474.20
2022-12-11T20:07:30.668Z,99468.64
2022-12-11T20:10:24.309Z,99468.02
2022-12-11T20:13:17.755Z,99462.09
2022-12-11T20:16:11.914Z,99458.27
2022-12-11T20:19:05.876Z,99452.14
2022-12-11T20:21:58.923Z,99448.13
2022-12-11T20:24:51.842Z,99445.27
2022-12-11T20:27:45.391Z,99439.10
2022-12-11T20:30:38.764Z,99441.02
2022-12-11T20:33:31.802Z,99436.98
2022-12-11T20:36:24.962Z,99435.55
2022-12-11T20:39:18.025Z,99426.35
2022-12-11T20:42:12.019Z,99427.58
2022-12-11T20:45:06.127Z,99419.48
2022-12-11T20:47:59.424Z,99416.79
2022-12-11T20:50:52.429Z,99415.23
2022-12-11T20:53:45.512Z,99419.33
2022-12-11T20:56:38.589Z,99417.48
2022-12-11T20:59:32.072Z,99409.42
2022-12-11T21:02:25.206Z,99411.55
2022-12-11T21:05:18.247Z,99411.39
2022-12-11T21:08:11.324Z,99410.04
2022-12-11T21:11:04.354Z,99411.39
2022-12-11T21:13:57.531Z,99410.90
2022-12-11T21:16:50.960Z,99410.69
2022-12-11T21:19:44.145Z,99411.10
2022-12-11T21:22:37.436Z,99408.77
2022-12-11T21:25:30.509Z,99407.02
2022-12-11T21:28:23.897Z,99404.20
2022-12-11T21:31:18.989Z,99405.09
2022-12-11T21:34:12.187Z,99408.33
2022-12-11T21:37:05.321Z,99408.23
2022-12-11T21:43:34.927Z,99403.23
2022-12-11T21:46:28.731Z,99403.98
2022-12-11T21:49:21.845Z,99407.20
2022-12-11T21:52:15.267Z,99407.73
2022-12-11T21:55:09.586Z,99405.02
2022-12-11T21:58:03.019Z,99405.15
2022-12-11T22:00:56.551Z,99401.96
2022-12-11T22:03:49.541Z,99399.11
2022-12-11T22:06:43.707Z,99401.68
2022-12-11T22:09:36.827Z,99401.36
2022-12-11T22:12:30.698Z,99405.12
2022-12-11T22:15:24.406Z,99400.27
2022-12-11T22:18:18.585Z,99401.36
2022-12-11T22:21:11.838Z,99401.36
2022-12-11T22:24:05.244Z,99405.13
2022-12-11T22:26:58.240Z,99401.95
2022-12-11T22:29:51.291Z,99399.00
2022-12-11T22:32:45.344Z,99400.39
2022-12-11T22:35:38.566Z,99400.11
2022-12-11T22:38:32.666Z,99402.34
2022-12-11T22:41:27.923Z,99399.91
2022-12-11T22:44:22.620Z,99397.50
2022-12-11T22:47:15.645Z,99396.39
2022-12-11T22:50:10.106Z,99396.11
2022-12-11T22:53:03.327Z,99396.44
2022-12-11T22:55:56.570Z,99397.87
2022-12-11T22:58:49.583Z,99397.66
2022-12-11T23:01:42.634Z,99402.57
2022-12-11T23:04:35.940Z,99405.08
2022-12-11T23:07:29.925Z,99407.81
2022-12-11T23:10:23.004Z,99409.50
2022-12-11T23:13:16.073Z,99408.90
2022-12-11T23:16:09.544Z,99405.95
2022-12-11T23:19:02.781Z,99406.31
2022-12-11T23:21:56.052Z,99405.90
2022-12-11T23:24:49.290Z,99408.23
2022-12-11T23:27:42.649Z,99407.70
2022-12-11T23:30:36.121Z,99410.92
2022-12-11T23:33:31.882Z,99419.56
2022-12-11T23:36:25.207Z,99419.85
2022-12-11T23:39:18.602Z,99419.41
2022-12-11T23:42:12.080Z,99414.71
2022-12-11T23:45:05.461Z,99416.30
2022-12-11T23:47:58.367Z,99421.20
2022-12-11T23:50:56.540Z,99419.73
2022-12-11T23:53:49.294Z,99421.04
2022-12-11T23:56:42.090Z,99418.84
2022-12-11T23:59:34.771Z,99421.13
